sensor_id;sensor_type;location;lat;lon;timestamp;pressure;altitude;pressure_sealevel;temperature;humidity
58979;BME280;44763;50.464;30.612;2022-07-06T00:02:11;100109.24;;;24.76;48.69
58979;BME280;44763;50.464;30.612;2022-07-06T00:04:38;100108.72;;;24.74;48.89
58979;BME280;44763;50.464;30.612;2022-07-06T00:07:04;100057.28;;;24.38;49.15
58979;BME280;44763;50.464;30.612;2022-07-06T00:09:30;100107.92;;;24.71;49.22
58979;BME280;44763;50.464;30.612;2022-07-06T00:11:56;100106.08;;;24.66;49.40
58979;BME280;44763;50.464;30.612;2022-07-06T00:14:22;100095.45;;;24.64;49.55
58979;BME280;44763;50.464;30.612;2022-07-06T00:16:49;100095.19;;;24.63;49.54
58979;BME280;44763;50.464;30.612;2022-07-06T00:19:16;100094.42;;;24.60;49.74
58979;BME280;44763;50.464;30.612;2022-07-06T00:21:42;100093.34;;;24.59;49.84
58979;BME280;44763;50.464;30.612;2022-07-06T00:24:09;100090.89;;;24.57;49.97
58979;BME280;44763;50.464;30.612;2022-07-06T00:26:37;100094.50;;;24.53;50.09
58979;BME280;44763;50.464;30.612;2022-07-06T00:29:04;100088.48;;;24.53;50.18
58979;BME280;44763;50.464;30.612;2022-07-06T00:31:31;100085.77;;;24.53;50.12
58979;BME280;44763;50.464;30.612;2022-07-06T00:33:57;100087.92;;;24.54;50.12
58979;BME280;44763;50.464;30.612;2022-07-06T00:36:23;100084.69;;;24.49;50.54
58979;BME280;44763;50.464;30.612;2022-07-06T00:38:49;100090.14;;;24.46;50.69
58979;BME280;44763;50.464;30.612;2022-07-06T00:41:16;100095.63;;;24.44;50.78
58979;BME280;44763;50.464;30.612;2022-07-06T00:43:54;100096.46;;;24.42;50.85
58979;BME280;44763;50.464;30.612;2022-07-06T00:46:25;100096.19;;;24.41;50.92
58979;BME280;44763;50.464;30.612;2022-07-06T00:48:58;100095.42;;;24.38;51.29
58979;BME280;44763;50.464;30.612;2022-07-06T00:51:28;100092.45;;;24.32;51.56
58979;BME280;44763;50.464;30.612;2022-07-06T00:54:03;100087.36;;;24.25;51.83
58979;BME280;44763;50.464;30.612;2022-07-06T00:56:29;100093.64;;;24.20;52.06
58979;BME280;44763;50.464;30.612;2022-07-06T00:58:59;100091.23;;;24.16;52.20
58979;BME280;44763;50.464;30.612;2022-07-06T01:01:26;100085.02;;;24.10;52.44
58979;BME280;44763;50.464;30.612;2022-07-06T01:03:53;100086.12;;;24.09;52.46
58979;BME280;44763;50.464;30.612;2022-07-06T01:06:21;100088.56;;;24.08;52.53
58979;BME280;44763;50.464;30.612;2022-07-06T01:08:47;100083.96;;;24.06;52.74
58979;BME280;44763;50.464;30.612;2022-07-06T01:11:14;100088.08;;;24.04;52.80
58979;BME280;44763;50.464;30.612;2022-07-06T01:13:42;100088.60;;;24.03;52.95
58979;BME280;44763;50.464;30.612;2022-07-06T01:16:11;100092.16;;;24.04;52.87
58979;BME280;44763;50.464;30.612;2022-07-06T01:18:39;100085.88;;;24.06;52.93
58979;BME280;44763;50.464;30.612;2022-07-06T01:21:09;100085.32;;;24.06;52.94
58979;BME280;44763;50.464;30.612;2022-07-06T01:23:46;100089.97;;;24.06;52.91
58979;BME280;44763;50.464;30.612;2022-07-06T01:26:12;100087.52;;;24.04;52.99
58979;BME280;44763;50.464;30.612;2022-07-06T01:28:40;100082.38;;;23.98;53.33
58979;BME280;44763;50.464;30.612;2022-07-06T01:31:22;100085.97;;;23.93;53.48
58979;BME280;44763;50.464;30.612;2022-07-06T01:33:52;100087.05;;;23.92;53.60
58979;BME280;44763;50.464;30.612;2022-07-06T01:36:19;100091.97;;;23.93;53.69
58979;BME280;44763;50.464;30.612;2022-07-06T01:38:51;100090.08;;;23.90;53.83
58979;BME280;44763;50.464;30.612;2022-07-06T01:41:20;100087.08;;;23.89;53.81
58979;BME280;44763;50.464;30.612;2022-07-06T01:43:47;100090.11;;;23.85;54.17
58979;BME280;44763;50.464;30.612;2022-07-06T01:46:14;100080.05;;;23.78;54.25
58979;BME280;44763;50.464;30.612;2022-07-06T01:48:41;100081.97;;;23.75;54.43
58979;BME280;44763;50.464;30.612;2022-07-06T01:51:09;100078.19;;;23.71;54.62
58979;BME280;44763;50.464;30.612;2022-07-06T01:53:38;100079.58;;;23.68;54.75
58979;BME280;44763;50.464;30.612;2022-07-06T01:56:08;100082.05;;;23.65;55.01
58979;BME280;44763;50.464;30.612;2022-07-06T01:58:35;100085.63;;;23.60;55.10
58979;BME280;44763;50.464;30.612;2022-07-06T02:01:07;100090.81;;;23.57;55.27
58979;BME280;44763;50.464;30.612;2022-07-06T02:03:35;100087.84;;;23.53;55.41
58979;BME280;44763;50.464;30.612;2022-07-06T02:06:03;100086.78;;;23.49;55.53
58979;BME280;44763;50.464;30.612;2022-07-06T02:08:30;100090.85;;;23.46;55.69
58979;BME280;44763;50.464;30.612;2022-07-06T02:10:56;100089.77;;;23.45;55.75
58979;BME280;44763;50.464;30.612;2022-07-06T02:13:24;100087.08;;;23.42;55.93
58979;BME280;44763;50.464;30.612;2022-07-06T02:15:51;100086.01;;;23.38;56.32
58979;BME280;44763;50.464;30.612;2022-07-06T02:18:17;100083.59;;;23.34;56.52
58979;BME280;44763;50.464;30.612;2022-07-06T02:20:45;100087.41;;;23.30;56.83
58979;BME280;44763;50.464;30.612;2022-07-06T02:23:13;100074.39;;;23.25;56.90
58979;BME280;44763;50.464;30.612;2022-07-06T02:25:39;100079.78;;;23.32;57.21
58979;BME280;44763;50.464;30.612;2022-07-06T02:29:45;100073.16;;;23.51;56.92
58979;BME280;44763;50.464;30.612;2022-07-06T02:32:11;100078.27;;;23.58;56.66
58979;BME280;44763;50.464;30.612;2022-07-06T02:34:38;100078.19;;;23.74;56.25
58979;BME280;44763;50.464;30.612;2022-07-06T02:37:04;100079.20;;;23.88;55.84
58979;BME280;44763;50.464;30.612;2022-07-06T02:39:30;100083.47;;;23.99;55.57
58979;BME280;44763;50.464;30.612;2022-07-06T02:41:57;100084.48;;;24.11;55.20
58979;BME280;44763;50.464;30.612;2022-07-06T02:44:23;100075.13;;;24.22;54.75
58979;BME280;44763;50.464;30.612;2022-07-06T02:46:51;100076.42;;;24.30;54.49
58979;BME280;44763;50.464;30.612;2022-07-06T02:49:18;100084.52;;;24.38;54.31
58979;BME280;44763;50.464;30.612;2022-07-06T02:51:46;100083.84;;;24.51;53.84
58979;BME280;44763;50.464;30.612;2022-07-06T02:54:13;100076.62;;;24.68;53.37
58979;BME280;44763;50.464;30.612;2022-07-06T02:56:39;100085.14;;;24.85;52.91
58979;BME280;44763;50.464;30.612;2022-07-06T02:59:06;100079.84;;;24.97;52.47
58979;BME280;44763;50.464;30.612;2022-07-06T03:01:33;100084.86;;;25.11;52.21
58979;BME280;44763;50.464;30.612;2022-07-06T03:04:00;100086.34;;;25.25;51.65
58979;BME280;44763;50.464;30.612;2022-07-06T03:06:27;100078.67;;;25.27;51.58
58979;BME280;44763;50.464;30.612;2022-07-06T03:08:53;100076.69;;;25.33;51.58
58979;BME280;44763;50.464;30.612;2022-07-06T03:11:20;100074.13;;;25.41;51.71
58979;BME280;44763;50.464;30.612;2022-07-06T03:13:47;100029.84;;;25.28;50.89
58979;BME280;44763;50.464;30.612;2022-07-06T03:16:15;100069.08;;;25.51;50.97
58979;BME280;44763;50.464;30.612;2022-07-06T03:18:41;100067.59;;;25.40;51.48
58979;BME280;44763;50.464;30.612;2022-07-06T03:21:09;100078.00;;;25.14;51.57
58979;BME280;44763;50.464;30.612;2022-07-06T03:23:35;100068.88;;;25.02;51.83
58979;BME280;44763;50.464;30.612;2022-07-06T03:26:02;100067.53;;;24.99;52.07
58979;BME280;44763;50.464;30.612;2022-07-06T03:28:29;100073.27;;;25.24;51.79
58979;BME280;44763;50.464;30.612;2022-07-06T03:30:55;100070.27;;;25.64;51.05
58979;BME280;44763;50.464;30.612;2022-07-06T03:33:21;100062.78;;;26.08;50.42
58979;BME280;44763;50.464;30.612;2022-07-06T03:35:48;100063.75;;;26.31;48.47
58979;BME280;44763;50.464;30.612;2022-07-06T03:38:14;100071.31;;;26.50;48.35
58979;BME280;44763;50.464;30.612;2022-07-06T03:40:41;100066.27;;;26.60;47.83
58979;BME280;44763;50.464;30.612;2022-07-06T03:43:07;100080.32;;;26.67;47.55
58979;BME280;44763;50.464;30.612;2022-07-06T03:45:35;100077.41;;;26.77;47.59
58979;BME280;44763;50.464;30.612;2022-07-06T03:48:02;100072.02;;;27.14;46.72
58979;BME280;44763;50.464;30.612;2022-07-06T03:50:29;100071.27;;;27.50;46.16
58979;BME280;44763;50.464;30.612;2022-07-06T03:52:57;100068.56;;;27.84;45.11
58979;BME280;44763;50.464;30.612;2022-07-06T03:55:24;100067.91;;;28.12;44.39
58979;BME280;44763;50.464;30.612;2022-07-06T03:57:54;100068.45;;;28.34;43.42
58979;BME280;44763;50.464;30.612;2022-07-06T04:00:21;100066.57;;;28.54;43.00
58979;BME280;44763;50.464;30.612;2022-07-06T04:02:49;100066.81;;;28.76;42.38
58979;BME280;44763;50.464;30.612;2022-07-06T04:05:17;100064.37;;;28.94;41.86
58979;BME280;44763;50.464;30.612;2022-07-06T04:07:45;100062.70;;;29.04;41.60
58979;BME280;44763;50.464;30.612;2022-07-06T04:10:13;100061.98;;;29.10;41.09
58979;BME280;44763;50.464;30.612;2022-07-06T04:12:44;100059.72;;;29.32;40.68
58979;BME280;44763;50.464;30.612;2022-07-06T04:15:13;100062.73;;;29.50;40.04
58979;BME280;44763;50.464;30.612;2022-07-06T04:17:39;100065.89;;;29.73;39.61
58979;BME280;44763;50.464;30.612;2022-07-06T04:20:19;100062.92;;;29.80;39.23
58979;BME280;44763;50.464;30.612;2022-07-06T04:22:47;100050.76;;;29.99;38.54
58979;BME280;44763;50.464;30.612;2022-07-06T04:25:14;100050.66;;;30.10;38.40
58979;BME280;44763;50.464;30.612;2022-07-06T04:27:41;100048.22;;;30.17;38.14
58979;BME280;44763;50.464;30.612;2022-07-06T04:30:09;100041.97;;;30.32;37.62
58979;BME280;44763;50.464;30.612;2022-07-06T04:32:37;100040.23;;;30.51;37.20
58979;BME280;44763;50.464;30.612;2022-07-06T04:35:05;100034.23;;;30.57;36.96
58979;BME280;44763;50.464;30.612;2022-07-06T04:37:31;100036.38;;;30.43;37.18
58979;BME280;44763;50.464;30.612;2022-07-06T04:39:58;100034.46;;;30.26;37.38
58979;BME280;44763;50.464;30.612;2022-07-06T04:42:25;100033.56;;;30.28;38.09
58979;BME280;44763;50.464;30.612;2022-07-06T04:44:51;100031.59;;;30.61;36.86
58979;BME280;44763;50.464;30.612;2022-07-06T04:47:17;100028.70;;;30.96;35.60
58979;BME280;44763;50.464;30.612;2022-07-06T04:49:44;100025.08;;;31.04;34.93
58979;BME280;44763;50.464;30.612;2022-07-06T04:52:12;100023.95;;;31.26;35.03
58979;BME280;44763;50.464;30.612;2022-07-06T04:54:38;100021.75;;;31.40;32.96
58979;BME280;44763;50.464;30.612;2022-07-06T04:57:04;100021.29;;;31.38;33.33
58979;BME280;44763;50.464;30.612;2022-07-06T04:59:33;100019.97;;;31.30;33.56
58979;BME280;44763;50.464;30.612;2022-07-06T05:01:59;100015.64;;;31.50;33.57
58979;BME280;44763;50.464;30.612;2022-07-06T05:04:25;100017.45;;;31.73;33.13
58979;BME280;44763;50.464;30.612;2022-07-06T05:06:51;100015.67;;;31.89;32.46
58979;BME280;44763;50.464;30.612;2022-07-06T05:09:17;100008.29;;;31.87;31.86
58979;BME280;44763;50.464;30.612;2022-07-06T05:11:46;100010.57;;;31.79;32.47
58979;BME280;44763;50.464;30.612;2022-07-06T05:14:12;99999.94;;;31.90;32.03
58979;BME280;44763;50.464;30.612;2022-07-06T05:16:40;99998.27;;;32.10;31.52
58979;BME280;44763;50.464;30.612;2022-07-06T05:19:08;100001.97;;;32.14;31.83
58979;BME280;44763;50.464;30.612;2022-07-06T05:21:34;100001.73;;;32.13;30.67
58979;BME280;44763;50.464;30.612;2022-07-06T05:24:01;99998.90;;;31.94;31.25
58979;BME280;44763;50.464;30.612;2022-07-06T05:26:27;100003.22;;;31.77;31.13
58979;BME280;44763;50.464;30.612;2022-07-06T05:28:54;100002.02;;;31.59;31.54
58979;BME280;44763;50.464;30.612;2022-07-06T05:31:21;99995.03;;;31.68;31.57
58979;BME280;44763;50.464;30.612;2022-07-06T05:33:48;99984.66;;;31.92;31.47
58979;BME280;44763;50.464;30.612;2022-07-06T05:36:14;99994.09;;;31.97;30.98
58979;BME280;44763;50.464;30.612;2022-07-06T05:38:40;99992.01;;;31.94;31.08
58979;BME280;44763;50.464;30.612;2022-07-06T05:41:07;99988.61;;;32.04;31.45
58979;BME280;44763;50.464;30.612;2022-07-06T05:43:36;99988.89;;;32.23;30.95
58979;BME280;44763;50.464;30.612;2022-07-06T05:46:05;99980.39;;;32.47;31.04
58979;BME280;44763;50.464;30.612;2022-07-06T05:48:32;99979.72;;;32.74;30.28
58979;BME280;44763;50.464;30.612;2022-07-06T05:51:18;99981.52;;;32.89;29.44
58979;BME280;44763;50.464;30.612;2022-07-06T05:53:47;99976.24;;;32.90;29.19
58979;BME280;44763;50.464;30.612;2022-07-06T05:56:14;99971.55;;;32.78;29.25
58979;BME280;44763;50.464;30.612;2022-07-06T05:58:40;99968.23;;;32.60;29.98
58979;BME280;44763;50.464;30.612;2022-07-06T06:01:07;99968.55;;;32.52;29.75
58979;BME280;44763;50.464;30.612;2022-07-06T06:03:34;99961.66;;;32.46;29.69
58979;BME280;44763;50.464;30.612;2022-07-06T06:06:02;99965.22;;;32.47;29.49
58979;BME280;44763;50.464;30.612;2022-07-06T06:08:29;99967.06;;;32.43;29.85
58979;BME280;44763;50.464;30.612;2022-07-06T06:10:55;99970.32;;;32.57;29.97
58979;BME280;44763;50.464;30.612;2022-07-06T06:13:23;99974.22;;;32.68;30.16
58979;BME280;44763;50.464;30.612;2022-07-06T06:15:49;99974.17;;;32.93;30.49
58979;BME280;44763;50.464;30.612;2022-07-06T06:18:16;99970.21;;;33.19;31.12
58979;BME280;44763;50.464;30.612;2022-07-06T06:20:45;99959.86;;;33.22;30.84
58979;BME280;44763;50.464;30.612;2022-07-06T06:23:12;99961.16;;;33.12;30.67
58979;BME280;44763;50.464;30.612;2022-07-06T06:25:39;99956.59;;;32.85;31.59
58979;BME280;44763;50.464;30.612;2022-07-06T06:28:08;99957.91;;;32.57;31.50
58979;BME280;44763;50.464;30.612;2022-07-06T06:30:36;99959.58;;;32.49;32.04
58979;BME280;44763;50.464;30.612;2022-07-06T06:33:11;99964.67;;;32.59;31.68
58979;BME280;44763;50.464;30.612;2022-07-06T06:35:44;99963.28;;;32.78;32.34
58979;BME280;44763;50.464;30.612;2022-07-06T06:38:11;99953.77;;;33.04;31.61
58979;BME280;44763;50.464;30.612;2022-07-06T06:40:38;99948.59;;;33.08;31.65
58979;BME280;44763;50.464;30.612;2022-07-06T06:43:04;99940.53;;;33.09;32.04
58979;BME280;44763;50.464;30.612;2022-07-06T06:45:32;99945.95;;;33.18;32.18
58979;BME280;44763;50.464;30.612;2022-07-06T06:47:58;99938.96;;;33.02;31.59
58979;BME280;44763;50.464;30.612;2022-07-06T06:50:24;99943.00;;;32.98;32.15
58979;BME280;44763;50.464;30.612;2022-07-06T06:52:50;99943.16;;;33.24;31.64
58979;BME280;44763;50.464;30.612;2022-07-06T06:55:17;99937.70;;;33.40;31.99
58979;BME280;44763;50.464;30.612;2022-07-06T06:57:44;99933.33;;;33.61;31.39
58979;BME280;44763;50.464;30.612;2022-07-06T07:00:12;99930.34;;;33.82;31.20
58979;BME280;44763;50.464;30.612;2022-07-06T07:02:39;99926.28;;;34.02;30.51
58979;BME280;44763;50.464;30.612;2022-07-06T07:05:06;99929.64;;;34.01;30.17
58979;BME280;44763;50.464;30.612;2022-07-06T07:07:34;99920.02;;;33.95;30.58
58979;BME280;44763;50.464;30.612;2022-07-06T07:10:00;99916.08;;;33.80;31.09
58979;BME280;44763;50.464;30.612;2022-07-06T07:12:27;99919.35;;;33.70;31.47
58979;BME280;44763;50.464;30.612;2022-07-06T07:14:55;99914.20;;;33.68;30.96
58979;BME280;44763;50.464;30.612;2022-07-06T07:17:22;99918.86;;;33.52;31.07
58979;BME280;44763;50.464;30.612;2022-07-06T07:19:48;99909.39;;;33.37;31.45
58979;BME280;44763;50.464;30.612;2022-07-06T07:22:14;99921.41;;;33.29;31.82
58979;BME280;44763;50.464;30.612;2022-07-06T07:24:41;99919.09;;;33.31;31.11
58979;BME280;44763;50.464;30.612;2022-07-06T07:27:07;99910.63;;;33.46;30.81
58979;BME280;44763;50.464;30.612;2022-07-06T07:29:33;99907.91;;;33.55;30.71
58979;BME280;44763;50.464;30.612;2022-07-06T07:32:01;99915.75;;;33.53;30.45
58979;BME280;44763;50.464;30.612;2022-07-06T07:34:27;99913.77;;;33.38;29.96
58979;BME280;44763;50.464;30.612;2022-07-06T07:36:53;99915.13;;;33.16;30.19
58979;BME280;44763;50.464;30.612;2022-07-06T07:39:19;99915.52;;;32.90;30.97
58979;BME280;44763;50.464;30.612;2022-07-06T07:41:46;99913.23;;;32.86;31.21
58979;BME280;44763;50.464;30.612;2022-07-06T07:44:13;99916.05;;;33.02;31.17
58979;BME280;44763;50.464;30.612;2022-07-06T07:46:39;99924.84;;;32.91;30.65
58979;BME280;44763;50.464;30.612;2022-07-06T07:49:05;99910.75;;;32.62;30.85
58979;BME280;44763;50.464;30.612;2022-07-06T07:51:32;99906.95;;;32.36;30.60
58979;BME280;44763;50.464;30.612;2022-07-06T07:53:58;99920.28;;;32.15;31.65
58979;BME280;44763;50.464;30.612;2022-07-06T07:56:25;99920.26;;;31.97;32.30
58979;BME280;44763;50.464;30.612;2022-07-06T07:58:51;99912.08;;;31.88;32.26
58979;BME280;44763;50.464;30.612;2022-07-06T08:01:19;99917.13;;;31.86;32.32
58979;BME280;44763;50.464;30.612;2022-07-06T08:03:46;99911.50;;;31.82;32.15
58979;BME280;44763;50.464;30.612;2022-07-06T08:06:12;99912.42;;;31.87;31.60
58979;BME280;44763;50.464;30.612;2022-07-06T08:08:38;99911.05;;;31.80;31.83
58979;BME280;44763;50.464;30.612;2022-07-06T08:11:05;99907.61;;;31.84;32.61
58979;BME280;44763;50.464;30.612;2022-07-06T08:13:32;99909.78;;;31.90;32.31
58979;BME280;44763;50.464;30.612;2022-07-06T08:15:59;99899.12;;;32.01;32.23
58979;BME280;44763;50.464;30.612;2022-07-06T08:18:26;99904.20;;;32.11;31.94
58979;BME280;44763;50.464;30.612;2022-07-06T08:20:52;99913.05;;;32.11;31.10
58979;BME280;44763;50.464;30.612;2022-07-06T08:23:19;99908.92;;;32.05;31.62
58979;BME280;44763;50.464;30.612;2022-07-06T08:25:45;99905.44;;;32.01;32.54
58979;BME280;44763;50.464;30.612;2022-07-06T08:28:11;99924.87;;;32.05;31.78
58979;BME280;44763;50.464;30.612;2022-07-06T08:30:37;99907.30;;;32.10;31.77
58979;BME280;44763;50.464;30.612;2022-07-06T08:33:03;99908.70;;;32.16;31.53
58979;BME280;44763;50.464;30.612;2022-07-06T08:35:29;99899.04;;;32.22;31.78
58979;BME280;44763;50.464;30.612;2022-07-06T08:37:57;99895.61;;;32.25;31.49
58979;BME280;44763;50.464;30.612;2022-07-06T08:40:23;99905.35;;;32.23;31.51
58979;BME280;44763;50.464;30.612;2022-07-06T08:42:53;99909.50;;;32.10;30.70
58979;BME280;44763;50.464;30.612;2022-07-06T08:45:20;99903.36;;;31.92;30.87
58979;BME280;44763;50.464;30.612;2022-07-06T08:47:49;99900.72;;;31.90;30.65
58979;BME280;44763;50.464;30.612;2022-07-06T08:50:18;99901.30;;;31.95;30.25
58979;BME280;44763;50.464;30.612;2022-07-06T08:52:47;99903.94;;;31.92;30.29
58979;BME280;44763;50.464;30.612;2022-07-06T08:55:15;99891.66;;;31.95;30.78
58979;BME280;44763;50.464;30.612;2022-07-06T08:57:48;99888.25;;;32.05;30.78
58979;BME280;44763;50.464;30.612;2022-07-06T09:00:15;99896.06;;;32.09;30.44
58979;BME280;44763;50.464;30.612;2022-07-06T09:02:42;99871.00;;;32.08;30.16
58979;BME280;44763;50.464;30.612;2022-07-06T09:05:13;99874.23;;;32.04;30.33
58979;BME280;44763;50.464;30.612;2022-07-06T09:07:40;99875.39;;;32.03;30.51
58979;BME280;44763;50.464;30.612;2022-07-06T09:10:08;99878.70;;;32.02;30.21
58979;BME280;44763;50.464;30.612;2022-07-06T09:12:35;99869.03;;;31.96;30.57
58979;BME280;44763;50.464;30.612;2022-07-06T09:15:02;99881.55;;;31.99;30.38
58979;BME280;44763;50.464;30.612;2022-07-06T09:17:30;99868.38;;;32.05;30.11
58979;BME280;44763;50.464;30.612;2022-07-06T09:19:56;99873.73;;;32.01;30.49
58979;BME280;44763;50.464;30.612;2022-07-06T09:22:28;99867.31;;;31.97;30.21
58979;BME280;44763;50.464;30.612;2022-07-06T09:25:09;99881.21;;;32.01;30.35
58979;BME280;44763;50.464;30.612;2022-07-06T09:27:46;99862.06;;;32.05;30.32
58979;BME280;44763;50.464;30.612;2022-07-06T09:30:16;99857.22;;;32.08;30.54
58979;BME280;44763;50.464;30.612;2022-07-06T09:32:46;99853.56;;;32.16;30.74
58979;BME280;44763;50.464;30.612;2022-07-06T09:38:11;99847.79;;;32.33;29.98
58979;BME280;44763;50.464;30.612;2022-07-06T09:40:41;99838.95;;;32.40;29.93
58979;BME280;44763;50.464;30.612;2022-07-06T09:45:55;99836.62;;;32.48;29.66
58979;BME280;44763;50.464;30.612;2022-07-06T09:50:57;99821.10;;;32.50;29.88
58979;BME280;44763;50.464;30.612;2022-07-06T09:53:26;99830.08;;;32.59;29.49
58979;BME280;44763;50.464;30.612;2022-07-06T09:55:55;99837.39;;;32.55;29.41
58979;BME280;44763;50.464;30.612;2022-07-06T09:58:25;99834.44;;;32.48;28.66
58979;BME280;44763;50.464;30.612;2022-07-06T10:00:52;99829.25;;;32.52;29.17
58979;BME280;44763;50.464;30.612;2022-07-06T10:03:19;99828.81;;;32.63;28.96
58979;BME280;44763;50.464;30.612;2022-07-06T10:05:46;99821.27;;;32.75;28.52
58979;BME280;44763;50.464;30.612;2022-07-06T10:08:15;99830.92;;;32.82;28.25
58979;BME280;44763;50.464;30.612;2022-07-06T10:10:45;99832.67;;;32.74;28.41
58979;BME280;44763;50.464;30.612;2022-07-06T10:13:11;99833.77;;;32.57;28.65
58979;BME280;44763;50.464;30.612;2022-07-06T10:15:39;99824.98;;;32.55;28.94
58979;BME280;44763;50.464;30.612;2022-07-06T10:18:09;99815.70;;;32.53;29.09
58979;BME280;44763;50.464;30.612;2022-07-06T10:20:38;99821.31;;;32.51;29.23
58979;BME280;44763;50.464;30.612;2022-07-06T10:23:08;99819.01;;;32.53;28.65
58979;BME280;44763;50.464;30.612;2022-07-06T10:25:36;99813.08;;;32.57;28.38
58979;BME280;44763;50.464;30.612;2022-07-06T10:28:02;99800.73;;;32.67;28.33
58979;BME280;44763;50.464;30.612;2022-07-06T10:30:30;99814.27;;;32.72;27.92
58979;BME280;44763;50.464;30.612;2022-07-06T10:32:58;99820.50;;;32.69;27.87
58979;BME280;44763;50.464;30.612;2022-07-06T10:35:25;99805.46;;;32.60;28.02
58979;BME280;44763;50.464;30.612;2022-07-06T10:38:06;99811.77;;;32.54;28.27
58979;BME280;44763;50.464;30.612;2022-07-06T10:40:36;99809.80;;;32.55;28.29
58979;BME280;44763;50.464;30.612;2022-07-06T10:43:31;99793.97;;;32.58;28.41
58979;BME280;44763;50.464;30.612;2022-07-06T10:46:10;99793.50;;;32.68;28.37
58979;BME280;44763;50.464;30.612;2022-07-06T10:48:40;99780.91;;;32.77;28.32
58979;BME280;44763;50.464;30.612;2022-07-06T10:51:10;99781.70;;;32.84;28.27
58979;BME280;44763;50.464;30.612;2022-07-06T10:53:38;99781.52;;;32.92;28.55
58979;BME280;44763;50.464;30.612;2022-07-06T10:56:07;99781.95;;;33.01;28.21
58979;BME280;44763;50.464;30.612;2022-07-06T11:01:10;99765.78;;;32.93;28.53
58979;BME280;44763;50.464;30.612;2022-07-06T11:06:20;99764.25;;;32.80;28.59
58979;BME280;44763;50.464;30.612;2022-07-06T11:11:38;99744.92;;;32.80;28.76
58979;BME280;44763;50.464;30.612;2022-07-06T11:14:10;99734.09;;;32.81;28.59
58979;BME280;44763;50.464;30.612;2022-07-06T11:19:19;99744.30;;;32.86;28.73
58979;BME280;44763;50.464;30.612;2022-07-06T11:22:14;99745.19;;;32.90;28.32
58979;BME280;44763;50.464;30.612;2022-07-06T11:24:38;99727.14;;;32.93;28.13
58979;BME280;44763;50.464;30.612;2022-07-06T11:27:07;99716.66;;;32.92;28.14
58979;BME280;44763;50.464;30.612;2022-07-06T11:29:35;99718.14;;;32.96;28.73
58979;BME280;44763;50.464;30.612;2022-07-06T11:32:06;99712.55;;;33.08;28.67
58979;BME280;44763;50.464;30.612;2022-07-06T11:34:39;99709.60;;;33.23;28.55
58979;BME280;44763;50.464;30.612;2022-07-06T11:37:12;99725.71;;;33.37;28.34
58979;BME280;44763;50.464;30.612;2022-07-06T11:39:41;99717.11;;;33.48;27.53
58979;BME280;44763;50.464;30.612;2022-07-06T11:42:10;99710.20;;;33.48;27.36
58979;BME280;44763;50.464;30.612;2022-07-06T11:44:43;99716.28;;;33.38;27.60
58979;BME280;44763;50.464;30.612;2022-07-06T11:47:10;99706.38;;;33.37;27.91
58979;BME280;44763;50.464;30.612;2022-07-06T11:49:39;99705.29;;;33.42;27.81
58979;BME280;44763;50.464;30.612;2022-07-06T11:52:08;99715.78;;;33.42;27.72
58979;BME280;44763;50.464;30.612;2022-07-06T11:54:36;99715.02;;;33.51;27.61
58979;BME280;44763;50.464;30.612;2022-07-06T11:57:03;99703.23;;;33.54;27.01
58979;BME280;44763;50.464;30.612;2022-07-06T11:59:32;99693.45;;;33.57;27.04
58979;BME280;44763;50.464;30.612;2022-07-06T12:02:02;99707.02;;;33.56;27.34
58979;BME280;44763;50.464;30.612;2022-07-06T12:04:31;99696.67;;;33.53;27.30
58979;BME280;44763;50.464;30.612;2022-07-06T12:07:06;99695.50;;;33.44;27.58
58979;BME280;44763;50.464;30.612;2022-07-06T12:09:35;99691.54;;;33.35;27.68
58979;BME280;44763;50.464;30.612;2022-07-06T12:12:05;99695.92;;;33.36;27.61
58979;BME280;44763;50.464;30.612;2022-07-06T12:14:33;99656.63;;;33.11;27.34
58979;BME280;44763;50.464;30.612;2022-07-06T12:17:07;99680.73;;;33.36;27.28
58979;BME280;44763;50.464;30.612;2022-07-06T12:19:37;99680.84;;;33.34;27.51
58979;BME280;44763;50.464;30.612;2022-07-06T12:22:04;99687.72;;;33.24;27.64
58979;BME280;44763;50.464;30.612;2022-07-06T12:24:34;99675.79;;;33.20;27.99
58979;BME280;44763;50.464;30.612;2022-07-06T12:27:12;99670.21;;;33.26;28.01
58979;BME280;44763;50.464;30.612;2022-07-06T12:29:40;99672.00;;;33.34;27.98
58979;BME280;44763;50.464;30.612;2022-07-06T12:32:18;99670.73;;;33.32;27.52
58979;BME280;44763;50.464;30.612;2022-07-06T12:35:05;99667.16;;;33.22;27.65
58979;BME280;44763;50.464;30.612;2022-07-06T12:37:33;99658.43;;;33.20;27.88
58979;BME280;44763;50.464;30.612;2022-07-06T12:40:00;99667.79;;;33.09;27.90
58979;BME280;44763;50.464;30.612;2022-07-06T12:42:27;99668.44;;;33.02;27.71
58979;BME280;44763;50.464;30.612;2022-07-06T12:44:54;99654.12;;;32.90;27.87
58979;BME280;44763;50.464;30.612;2022-07-06T12:47:22;99646.42;;;32.90;27.98
58979;BME280;44763;50.464;30.612;2022-07-06T12:50:04;99663.17;;;32.97;27.84
58979;BME280;44763;50.464;30.612;2022-07-06T12:52:32;99642.02;;;32.95;27.91
58979;BME280;44763;50.464;30.612;2022-07-06T12:55:00;99672.30;;;32.91;28.08
58979;BME280;44763;50.464;30.612;2022-07-06T12:57:26;99650.42;;;32.92;28.03
58979;BME280;44763;50.464;30.612;2022-07-06T12:59:55;99648.34;;;32.95;28.20
58979;BME280;44763;50.464;30.612;2022-07-06T13:02:25;99617.31;;;32.76;28.17
58979;BME280;44763;50.464;30.612;2022-07-06T13:05:01;99649.91;;;33.03;28.23
58979;BME280;44763;50.464;30.612;2022-07-06T13:07:38;99650.25;;;33.01;28.14
58979;BME280;44763;50.464;30.612;2022-07-06T13:10:08;99664.30;;;33.02;28.36
58979;BME280;44763;50.464;30.612;2022-07-06T13:12:39;99664.94;;;33.05;28.66